Time;durP1;ratioP1;P1;durP2;ratioP2;P2;SDS_P1;SDS_P2;PMS_P1;PMS_P2;Temp;Humidity;BMP_temperature;BMP_pressure;BME280_temperature;BME280_humidity;BME280_pressure;Samples;Min_cycle;Max_cycle;Signal;HPM_P1;HPM_P2
2022/01/03 00:00:52;;;;;;;4.35;3.83;;;9.90;99.90;;;10.51;78.80;97968.44;5297845;27;20673;-65
2022/01/03 00:03:25;;;;;;;3.90;3.50;;;9.90;99.90;;;10.48;78.55;97969.13;5297428;27;20222;-66
2022/01/03 00:06:00;;;;;;;4.18;3.80;;;9.80;99.90;;;10.41;78.88;97971.22;5299288;27;20292;-65
2022/01/03 00:08:33;;;;;;;3.95;3.60;;;9.80;99.90;;;10.37;80.00;97971.06;5300852;27;20205;-66
2022/01/03 00:11:06;;;;;;;4.30;3.35;;;9.70;99.90;;;10.38;79.73;97988.13;5297775;27;20198;-67
2022/01/03 00:13:42;;;;;;;3.50;3.20;;;9.70;99.90;;;10.38;80.18;97985.56;5301043;27;20283;-66
2022/01/03 00:16:16;;;;;;;4.00;3.60;;;9.70;99.90;;;10.36;80.24;97994.84;5296087;27;20195;-66
2022/01/03 00:18:49;;;;;;;3.95;3.40;;;9.60;99.90;;;10.47;79.28;97992.94;5294397;27;20646;-66
2022/01/03 00:21:30;;;;;;;4.05;3.50;;;9.70;99.90;;;10.38;79.74;97987.25;5297788;27;20205;-66
2022/01/03 00:24:08;;;;;;;3.75;3.45;;;9.70;99.90;;;10.46;79.21;97987.72;5297519;27;20227;-67
2022/01/03 00:26:45;;;;;;;4.07;3.70;;;9.70;99.90;;;10.47;79.99;97976.69;5298356;27;20568;-66
2022/01/03 00:29:21;;;;;;;3.55;3.22;;;9.70;99.90;;;10.40;80.03;97970.34;5295141;27;20200;-65
2022/01/03 00:31:57;;;;;;;4.50;3.63;;;9.60;99.90;;;10.44;79.83;97966.28;5297837;27;20260;-66
2022/01/03 00:34:37;;;;;;;3.40;3.00;;;9.60;99.90;;;10.50;78.60;97961.53;5297133;27;20229;-66
2022/01/03 00:37:12;;;;;;;5.97;3.88;;;9.70;99.90;;;10.48;79.04;97973.38;5297648;27;20217;-66
2022/01/03 00:39:47;;;;;;;3.65;3.35;;;9.70;99.90;;;10.46;79.28;97964.72;5299902;27;20202;-65
2022/01/03 00:42:21;;;;;;;3.35;3.15;;;9.70;99.90;;;10.55;79.21;97962.69;5299500;27;20666;-65
2022/01/03 00:44:54;;;;;;;3.60;3.20;;;9.70;99.90;;;10.47;78.86;97963.91;5298105;27;20630;-65
2022/01/03 00:47:33;;;;;;;5.10;3.70;;;9.70;99.90;;;10.41;79.09;97955.91;5299148;27;20586;-65
2022/01/03 00:50:10;;;;;;;3.20;2.90;;;9.70;99.90;;;10.41;79.99;97956.78;5292718;27;20197;-65
2022/01/03 00:52:46;;;;;;;3.72;3.10;;;9.60;99.90;;;10.42;80.05;97963.66;5301157;27;20198;-67
2022/01/03 00:55:20;;;;;;;3.88;3.55;;;9.70;99.90;;;10.49;79.64;97967.47;5299952;27;20203;-65
2022/01/03 00:58:00;;;;;;;4.03;3.40;;;9.70;99.90;;;10.46;79.65;97964.72;5298038;27;20213;-66
2022/01/03 01:00:36;;;;;;;5.00;3.15;;;9.70;99.90;;;10.47;79.64;97969.94;5300876;28;20585;-65
2022/01/03 01:03:15;;;;;;;4.00;2.90;;;9.70;99.90;;;10.78;77.58;97972.59;5298735;27;20233;-66
2022/01/03 01:05:51;;;;;;;5.53;3.00;;;9.90;99.90;;;10.83;77.01;97966.06;5299034;27;20190;-66
2022/01/03 01:08:26;;;;;;;3.10;2.80;;;10.00;99.90;;;10.77;77.22;97975.94;5295604;28;20200;-66
2022/01/03 01:11:02;;;;;;;3.88;3.10;;;10.00;99.90;;;10.86;76.92;97964.50;5300035;27;20198;-65
2022/01/03 01:13:39;;;;;;;3.38;3.10;;;10.10;99.90;;;10.92;76.03;97962.28;5300113;28;20329;-65
2022/01/03 01:16:14;;;;;;;3.22;2.90;;;10.30;99.90;;;10.98;75.88;97965.19;5297603;28;20673;-65
2022/01/03 01:18:49;;;;;;;3.55;3.25;;;10.20;99.90;;;11.01;75.54;97963.69;5296730;28;20197;-65
2022/01/03 01:21:23;;;;;;;4.05;2.95;;;10.30;99.90;;;11.16;75.23;97958.56;5299557;28;20549;-65
2022/01/03 01:23:58;;;;;;;5.68;3.22;;;10.40;99.90;;;11.02;75.52;97970.56;5299219;27;20228;-65
2022/01/03 01:29:25;;;;;;;5.05;2.83;;;10.30;99.90;;;11.04;75.12;97970.66;5297192;28;20202;-66
2022/01/03 01:32:02;;;;;;;3.35;3.00;;;10.30;99.90;;;11.12;75.02;97958.31;5297165;27;20202;-65
2022/01/03 01:34:37;;;;;;;4.57;2.67;;;10.30;99.90;;;11.06;74.76;97956.28;5297863;28;20214;-65
2022/01/03 01:37:10;;;;;;;4.78;3.15;;;10.30;99.90;;;10.95;75.37;97954.78;5297307;27;20202;-66
2022/01/03 01:39:48;;;;;;;2.70;2.50;;;10.30;99.90;;;10.90;75.69;97959.66;5301774;28;20197;-66
2022/01/03 01:42:21;;;;;;;4.18;2.50;;;10.20;99.90;;;10.89;76.53;97972.34;5299064;28;20684;-65
2022/01/03 01:44:56;;;;;;;3.90;2.80;;;10.20;99.90;;;10.89;76.15;97972.34;5299656;27;20232;-66
2022/01/03 01:47:31;;;;;;;4.22;2.80;;;10.20;99.90;;;10.83;76.32;97972.88;5301802;27;20198;-64
2022/01/03 01:50:05;;;;;;;5.10;3.03;;;10.10;99.90;;;10.92;76.25;97977.63;5300379;27;20198;-66
2022/01/03 01:52:39;;;;;;;5.60;2.95;;;10.10;99.90;;;10.91;76.06;97965.66;5299150;27;20206;-66
2022/01/03 01:55:16;;;;;;;3.17;2.88;;;10.10;99.90;;;10.94;75.94;97943.69;5297734;27;20647;-65
2022/01/03 01:58:03;;;;;;;4.45;2.97;;;10.10;99.90;;;11.07;73.95;97946.91;5295404;28;20205;-67
2022/01/03 02:00:36;;;;;;;4.85;2.35;;;10.20;99.90;;;11.10;74.01;97955.63;5300306;28;20202;-66
2022/01/03 02:03:16;;;;;;;4.88;2.63;;;10.30;99.90;;;11.10;74.04;97950.53;5296476;27;20214;-66
2022/01/03 02:06:03;;;;;;;2.95;2.75;;;10.30;99.90;;;11.04;73.72;97943.41;5297307;27;20214;-67
2022/01/03 02:08:44;;;;;;;3.95;2.70;;;10.30;99.90;;;11.06;73.81;97951.16;5303736;27;20195;-66
2022/01/03 02:11:35;;;;;;;6.88;2.92;;;10.30;99.90;;;10.98;73.85;97957.50;5300554;27;20642;-65
2022/01/03 02:14:08;;;;;;;4.10;2.65;;;10.30;99.90;;;11.00;74.02;97955.94;5299420;27;20211;-66
2022/01/03 02:16:43;;;;;;;5.63;3.10;;;10.20;99.90;;;11.15;72.78;97971.25;5297488;27;20205;-66
2022/01/03 02:19:16;;;;;;;5.25;2.47;;;10.40;99.90;;;11.11;73.59;97965.09;5301233;27;20194;-66
2022/01/03 02:21:51;;;;;;;5.55;3.22;;;10.40;99.90;;;11.09;73.13;97971.78;5300033;27;20217;-66
2022/01/03 02:24:24;;;;;;;4.05;2.50;;;10.40;99.90;;;11.10;73.71;97965.88;5300304;27;20218;-65
2022/01/03 02:26:58;;;;;;;3.13;2.70;;;10.40;99.90;;;11.15;72.78;97967.03;5299955;27;20194;-66
2022/01/03 02:29:31;;;;;;;3.00;2.55;;;10.40;99.90;;;11.30;72.05;97963.56;5303492;27;20213;-65
2022/01/03 02:32:05;;;;;;;5.00;2.95;;;10.70;99.90;;;11.32;72.41;97957.72;5301038;27;20670;-66
2022/01/03 02:34:38;;;;;;;4.22;2.65;;;10.70;99.90;;;11.33;72.40;97961.16;5302639;27;20217;-67
2022/01/03 02:37:12;;;;;;;5.28;2.55;;;10.70;99.90;;;11.32;71.77;97970.53;5300629;27;20571;-65
2022/01/03 02:39:46;;;;;;;5.32;2.88;;;10.70;99.90;;;11.36;72.13;97963.88;5302850;27;20204;-66
2022/01/03 02:42:23;;;;;;;4.82;2.83;;;10.80;99.90;;;11.27;72.51;97975.41;5298500;27;20192;-66
2022/01/03 02:45:01;;;;;;;2.88;2.60;;;10.60;99.90;;;11.26;72.75;97991.53;5298495;27;20737;-67
2022/01/03 02:47:35;;;;;;;4.35;2.45;;;10.60;99.90;;;11.28;72.71;97974.59;5301713;27;20202;-67
2022/01/03 02:50:10;;;;;;;4.50;2.80;;;10.60;99.90;;;11.18;73.40;97977.41;5299668;27;20201;-67
2022/01/03 02:52:45;;;;;;;4.30;2.75;;;10.50;99.90;;;11.44;71.91;97970.31;5302266;27;20201;-65
2022/01/03 02:55:20;;;;;;;3.85;2.78;;;10.70;99.90;;;11.45;72.36;97972.09;5297834;27;20195;-66
2022/01/03 02:57:56;;;;;;;4.25;2.70;;;10.70;99.90;;;11.37;71.76;97973.34;5299791;27;20229;-67
2022/01/03 03:00:31;;;;;;;4.30;3.10;;;10.70;99.90;;;11.45;71.75;97977.22;5299692;27;20198;-66
2022/01/03 03:03:04;;;;;;;4.20;2.75;;;10.80;99.90;;;11.26;72.57;97980.41;5278575;22;20219;-66
2022/01/03 03:05:38;;;;;;;5.72;3.08;;;10.60;99.90;;;11.25;73.08;97984.66;5262245;28;20222;-65
2022/01/03 03:08:14;;;;;;;4.25;2.80;;;10.60;99.90;;;11.20;73.07;97993.75;5262939;28;20210;-66
2022/01/03 03:10:47;;;;;;;3.22;2.75;;;10.60;99.90;;;11.34;73.27;97988.53;5260485;28;20199;-65
2022/01/03 03:13:20;;;;;;;3.63;2.50;;;10.50;99.90;;;11.43;72.53;97991.59;5264312;28;20663;-66
2022/01/03 03:15:53;;;;;;;4.90;2.60;;;10.70;99.90;;;11.38;72.49;97987.91;5261980;28;20192;-66
2022/01/03 03:18:26;;;;;;;4.40;2.78;;;10.70;99.90;;;11.33;72.55;97991.88;5265394;28;20312;-65
2022/01/03 03:21:00;;;;;;;4.65;2.95;;;10.70;99.90;;;11.34;72.63;98001.34;5263385;28;20572;-65
2022/01/03 03:23:35;;;;;;;4.20;2.88;;;10.60;99.90;;;11.37;72.76;98004.06;5264085;28;20291;-65
2022/01/03 03:26:09;;;;;;;3.22;2.83;;;10.60;99.90;;;11.38;73.11;98003.25;5264125;28;20559;-66
2022/01/03 03:28:42;;;;;;;5.95;2.83;;;10.60;99.90;;;11.32;73.02;98008.03;5263408;28;20647;-66
2022/01/03 03:31:16;;;;;;;7.10;2.88;;;10.60;99.90;;;11.31;73.60;98008.84;5267891;28;20545;-66
2022/01/03 03:33:49;;;;;;;7.30;2.90;;;10.50;99.90;;;11.25;73.68;98010.25;5261458;28;20601;-65
2022/01/03 03:36:22;;;;;;;5.55;2.60;;;10.50;99.90;;;11.35;73.25;98010.75;5264897;28;20199;-65
2022/01/03 03:38:56;;;;;;;5.85;3.33;;;10.60;99.90;;;11.40;73.40;98011.91;5264744;28;20287;-66
2022/01/03 03:41:29;;;;;;;3.30;3.00;;;10.60;99.90;;;11.37;73.27;98016.84;5264289;28;20226;-65
2022/01/03 03:44:03;;;;;;;4.22;2.80;;;10.50;99.90;;;11.25;74.18;98015.38;5263787;28;20622;-65
2022/01/03 03:46:36;;;;;;;4.03;2.80;;;10.50;99.90;;;11.29;73.67;98011.28;5263674;28;20315;-66
2022/01/03 03:49:09;;;;;;;3.03;2.80;;;10.50;99.90;;;11.37;73.61;98007.50;5263727;28;20192;-66
2022/01/03 03:51:42;;;;;;;3.38;2.67;;;10.60;99.90;;;11.36;74.14;98012.50;5262674;28;20239;-65
2022/01/03 03:54:17;;;;;;;4.97;2.92;;;10.60;99.90;;;11.30;74.34;98019.84;5264039;28;20226;-65
2022/01/03 03:56:50;;;;;;;3.53;2.80;;;10.50;99.90;;;11.36;73.68;98013.44;5263793;28;20199;-66
2022/01/03 03:59:23;;;;;;;4.28;2.95;;;10.60;99.90;;;11.38;73.76;98005.81;5263288;28;20211;-65
2022/01/03 04:01:57;;;;;;;3.97;2.80;;;10.60;99.90;;;11.31;73.68;98006.28;5262280;28;20695;-65
2022/01/03 04:04:31;;;;;;;5.10;2.80;;;10.60;99.90;;;11.32;74.28;98008.03;5264067;28;20651;-66
2022/01/03 04:07:05;;;;;;;4.70;2.70;;;10.50;99.90;;;11.36;73.84;98012.50;5263165;28;20663;-66
2022/01/03 04:09:39;;;;;;;3.25;2.53;;;10.60;99.90;;;11.43;73.33;98009.53;5263197;28;20297;-65
2022/01/03 04:12:12;;;;;;;3.30;2.42;;;10.60;99.90;;;11.34;73.89;98003.91;5264615;28;20591;-65
2022/01/03 04:14:45;;;;;;;3.90;2.60;;;10.60;99.90;;;11.33;73.70;98002.09;5262431;28;20207;-66
2022/01/03 04:17:18;;;;;;;3.53;2.20;;;10.50;99.90;;;11.27;74.35;98006.09;5262159;28;20286;-65
2022/01/03 04:19:51;;;;;;;4.22;2.53;;;10.40;99.90;;;11.18;73.95;98013.25;5262442;28;20663;-66
2022/01/03 04:22:24;;;;;;;4.40;2.67;;;10.50;99.90;;;11.18;73.94;98018.34;5264757;28;20219;-66
2022/01/03 04:24:59;;;;;;;4.25;3.40;;;10.40;99.90;;;11.18;73.98;98003.00;5263525;28;20270;-66
2022/01/03 04:27:32;;;;;;;4.97;3.10;;;10.30;99.90;;;11.08;74.95;98010.97;5264133;28;20287;-66
2022/01/03 04:30:06;;;;;;;3.28;2.90;;;10.30;99.90;;;11.02;74.63;98019.16;5265387;28;20208;-66
2022/01/03 04:32:40;;;;;;;3.20;2.90;;;10.20;99.90;;;10.99;74.69;98007.88;5262911;28;20222;-66
2022/01/03 04:35:13;;;;;;;3.40;2.90;;;10.20;99.90;;;10.90;75.15;98022.66;5263040;28;20195;-66
2022/01/03 04:37:46;;;;;;;3.15;2.85;;;10.20;99.90;;;10.91;75.83;98021.91;5262612;28;20288;-66
2022/01/03 04:40:20;;;;;;;4.13;2.92;;;10.10;99.90;;;10.93;75.72;98012.63;5261990;28;20663;-66
2022/01/03 04:42:54;;;;;;;4.00;2.85;;;10.20;99.90;;;10.89;75.19;98011.56;5261266;28;20308;-66
2022/01/03 04:45:27;;;;;;;3.92;2.97;;;10.10;99.90;;;10.88;75.89;98021.72;5261565;28;20584;-66
2022/01/03 04:48:00;;;;;;;3.53;2.85;;;10.10;99.90;;;10.88;76.25;98024.28;5261958;28;20202;-66
2022/01/03 04:50:33;;;;;;;5.63;3.20;;;10.10;99.90;;;10.92;75.88;98018.53;5262640;28;20682;-65
2022/01/03 04:53:06;;;;;;;2.88;2.65;;;10.10;99.90;;;10.96;75.80;98025.59;5261208;28;20227;-65
2022/01/03 04:55:41;;;;;;;4.80;2.95;;;10.10;99.90;;;10.95;76.27;98034.94;5262327;28;20194;-65
2022/01/03 04:58:14;;;;;;;5.72;3.40;;;10.10;99.90;;;10.90;76.28;98025.22;5264068;28;20199;-66
2022/01/03 05:00:48;;;;;;;5.32;2.92;;;10.10;99.90;;;10.91;76.66;98016.78;5258973;28;20200;-65
2022/01/03 05:03:22;;;;;;;6.25;2.83;;;10.10;99.90;;;10.93;75.85;98010.06;5260435;28;20233;-66
2022/01/03 05:05:55;;;;;;;3.60;2.63;;;10.10;99.90;;;10.88;76.08;98029.41;5258840;28;20570;-66
2022/01/03 05:08:28;;;;;;;5.10;3.08;;;10.10;99.90;;;10.81;76.60;98039.25;5262719;28;20200;-66
2022/01/03 05:11:03;;;;;;;4.65;2.90;;;10.00;99.90;;;10.93;79.06;98041.66;5264160;28;20675;-64
2022/01/03 05:13:36;;;;;;;5.18;3.00;;;10.10;99.90;;;10.79;81.90;98042.53;5263623;28;20203;-63
2022/01/03 05:16:10;;;;;;;5.82;2.90;;;10.00;99.90;;;10.59;83.84;98038.78;5262935;28;20584;-64
2022/01/03 05:18:43;;;;;;;4.57;3.00;;;9.90;99.90;;;10.20;86.26;98052.53;5262135;28;20249;-63
2022/01/03 05:21:16;;;;;;;4.95;3.33;;;9.70;99.90;;;10.06;89.36;98047.47;5263385;28;20192;-64
2022/01/03 05:23:49;;;;;;;4.78;3.10;;;9.50;99.90;;;9.83;91.56;98043.47;5261270;28;20272;-65
2022/01/03 05:26:24;;;;;;;3.30;3.00;;;9.30;99.90;;;9.71;92.57;98070.78;5262050;28;20230;-66
2022/01/03 05:28:57;;;;;;;6.78;2.90;;;9.20;99.90;;;9.47;94.35;98086.28;5260614;28;20207;-67
2022/01/03 05:31:30;;;;;;;6.65;3.65;;;9.10;99.90;;;9.36;96.80;98060.88;5264811;28;20221;-66
2022/01/03 05:34:04;;;;;;;5.70;3.20;;;8.90;99.90;;;9.29;97.13;98059.56;5264095;28;20196;-67
2022/01/03 05:36:37;;;;;;;5.30;3.05;;;8.80;99.90;;;9.23;97.92;98066.84;5264942;28;20196;-66
2022/01/03 05:39:10;;;;;;;5.22;3.30;;;8.80;99.90;;;9.20;99.57;98076.84;5265217;28;20206;-66
2022/01/03 05:41:44;;;;;;;5.20;3.33;;;8.70;99.90;;;9.19;100.00;98057.22;5268263;28;20212;-66
2022/01/03 05:44:17;;;;;;;5.15;2.95;;;8.70;99.90;;;9.20;100.00;98064.09;5270378;28;20207;-65
2022/01/03 05:46:50;;;;;;;4.90;3.35;;;8.70;99.90;;;9.18;100.00;98056.31;5271359;28;20208;-65
2022/01/03 05:49:24;;;;;;;5.65;3.50;;;8.60;99.90;;;9.19;100.00;98062.31;5269597;28;20202;-66
2022/01/03 05:51:57;;;;;;;3.15;2.85;;;8.60;99.90;;;9.18;100.00;98065.63;5268378;28;20220;-65
2022/01/03 05:54:30;;;;;;;3.95;3.30;;;8.60;99.90;;;9.15;100.00;98070.53;5266631;28;20202;-65
2022/01/03 05:57:05;;;;;;;5.57;3.20;;;8.60;99.90;;;9.11;100.00;98068.59;5269566;28;20731;-66
2022/01/03 05:59:38;;;;;;;4.10;3.00;;;8.50;99.90;;;9.09;100.00;98076.13;5267104;28;20200;-66
2022/01/03 06:02:11;;;;;;;5.43;3.25;;;8.50;99.90;;;9.08;100.00;98076.03;5265519;28;20234;-65
2022/01/03 06:04:56;;;;;;;6.85;3.08;;;8.50;99.90;;;9.03;100.00;98081.69;5267659;28;20241;-65
2022/01/03 06:07:29;;;;;;;4.28;2.97;;;8.50;99.90;;;9.02;100.00;98074.84;5266327;28;20222;-66
2022/01/03 06:10:03;;;;;;;4.25;3.05;;;8.40;99.90;;;9.03;100.00;98078.25;5267536;28;20599;-65
2022/01/03 06:12:37;;;;;;;6.53;2.85;;;8.40;99.90;;;9.05;100.00;98080.94;5264456;28;20223;-66
2022/01/03 06:15:10;;;;;;;7.00;3.15;;;8.40;99.90;;;8.99;100.00;98069.53;5267990;28;20195;-66
2022/01/03 06:17:44;;;;;;;6.20;3.63;;;8.40;99.90;;;8.96;100.00;98059.13;5265136;28;20192;-66
2022/01/03 06:20:17;;;;;;;8.67;3.50;;;8.30;99.90;;;8.94;100.00;98065.78;5275416;28;20287;-66
2022/01/03 06:22:50;;;;;;;8.38;4.28;;;8.30;99.90;;;8.88;100.00;98065.38;5265513;28;20542;-65
2022/01/03 06:25:24;;;;;;;4.82;3.58;;;8.30;99.90;;;8.84;100.00;98071.03;5267263;28;20196;-66
2022/01/03 06:27:58;;;;;;;6.88;3.72;;;8.30;99.90;;;8.88;100.00;98074.72;5269361;28;20225;-66
2022/01/03 06:30:31;;;;;;;4.57;3.17;;;8.20;99.90;;;8.86;100.00;98082.22;5264091;28;20583;-65
2022/01/03 06:33:04;;;;;;;3.78;3.42;;;8.20;99.90;;;8.87;100.00;98081.47;5270902;28;20238;-66
2022/01/03 06:35:38;;;;;;;3.83;3.20;;;8.20;99.90;;;8.87;100.00;98068.72;5267221;28;20195;-66
2022/01/03 06:38:11;;;;;;;4.35;3.33;;;8.20;99.90;;;8.88;100.00;98069.59;5265900;28;20198;-66
2022/01/03 06:40:44;;;;;;;3.42;2.95;;;8.20;99.90;;;8.86;100.00;98061.84;5268001;28;20200;-65
2022/01/03 06:43:19;;;;;;;4.43;3.17;;;8.20;99.90;;;8.87;100.00;98068.72;5265712;28;20216;-66
2022/01/03 06:45:52;;;;;;;5.28;3.97;;;8.20;99.90;;;8.85;100.00;98079.59;5264512;28;20563;-66
2022/01/03 06:48:25;;;;;;;6.97;5.63;;;8.10;99.90;;;8.82;100.00;98087.91;5263353;28;20209;-66
2022/01/03 06:50:58;;;;;;;9.82;7.63;;;8.10;99.90;;;8.82;100.00;98071.75;5265458;28;20290;-67
2022/01/03 06:53:31;;;;;;;8.77;5.95;;;8.10;99.90;;;8.84;100.00;98082.91;5263862;28;20252;-66
2022/01/03 06:56:05;;;;;;;6.70;5.40;;;8.20;99.90;;;8.78;100.00;98075.72;5263232;28;20208;-67
2022/01/03 06:58:41;;;;;;;8.05;4.10;;;8.10;99.90;;;8.83;100.00;98082.03;5264478;28;20188;-66
2022/01/03 07:01:14;;;;;;;7.97;3.97;;;8.00;99.90;;;8.78;100.00;98089.38;5263848;28;20198;-67
2022/01/03 07:03:47;;;;;;;6.57;3.78;;;8.10;99.90;;;8.78;100.00;98073.19;5264628;28;20563;-67
2022/01/03 07:06:20;;;;;;;7.47;3.75;;;8.10;99.90;;;8.76;100.00;98074.78;5262179;28;20227;-66
2022/01/03 07:08:53;;;;;;;7.43;3.80;;;8.00;99.90;;;8.75;100.00;98071.31;5264299;28;20202;-66
2022/01/03 07:11:27;;;;;;;7.60;4.20;;;8.00;99.90;;;8.75;100.00;98067.88;5259726;28;20217;-66
2022/01/03 07:18:55;;;;;;;5.53;4.10;;;8.00;99.90;;;8.74;100.00;98071.22;5264440;28;20290;-67
2022/01/03 07:19:56;;;;;;;4.38;3.60;;;8.00;99.90;;;8.70;100.00;98076.88;5263365;28;20200;-67
2022/01/03 07:22:29;;;;;;;4.53;3.97;;;8.00;99.90;;;8.69;100.00;98078.53;5264744;28;20218;-66
2022/01/03 07:25:04;;;;;;;6.55;4.25;;;8.00;99.90;;;8.71;100.00;98083.75;5262605;28;20703;-66
2022/01/03 07:27:37;;;;;;;6.23;4.40;;;8.00;99.90;;;8.72;100.00;98077.88;5263423;28;20353;-66
2022/01/03 07:30:12;;;;;;;5.10;4.60;;;8.10;99.90;;;8.73;100.00;98074.56;5262247;28;20207;-65
2022/01/03 07:32:45;;;;;;;5.28;4.20;;;8.10;99.90;;;8.75;100.00;98065.34;5262549;28;20216;-64
2022/01/03 07:35:19;;;;;;;6.85;4.85;;;8.00;99.90;;;8.76;100.00;98069.69;5264902;28;20590;-65
2022/01/03 07:37:53;;;;;;;6.35;4.38;;;8.00;99.90;;;8.73;100.00;98074.56;5261611;28;20200;-65
2022/01/03 07:40:27;;;;;;;8.35;5.43;;;8.00;99.90;;;8.70;100.00;98074.31;5265962;28;20199;-65
2022/01/03 07:43:00;;;;;;;7.85;4.53;;;7.90;99.90;;;8.66;100.00;98072.38;5262345;28;20219;-65
2022/01/03 07:45:35;;;;;;;4.82;4.30;;;7.90;99.90;;;8.68;100.00;98068.28;5260425;28;20235;-66
2022/01/03 07:48:08;;;;;;;7.25;4.60;;;8.00;99.90;;;8.67;100.00;98063.94;5261046;28;20211;-66
2022/01/03 07:50:41;;;;;;;9.60;4.75;;;8.00;99.90;;;8.67;100.00;98066.47;5264047;28;20210;-65
2022/01/03 07:53:14;;;;;;;7.82;4.82;;;8.00;99.90;;;8.67;100.00;98069.03;5262566;28;20230;-66
2022/01/03 07:55:49;;;;;;;7.68;4.88;;;8.00;99.90;;;8.67;100.00;98066.47;5262280;28;20210;-65
2022/01/03 07:58:22;;;;;;;8.95;5.18;;;8.00;99.90;;;8.67;100.00;98067.38;5264319;28;20215;-66
2022/01/03 08:00:56;;;;;;;6.90;4.77;;;8.00;99.90;;;8.70;100.00;98064.13;5262057;28;20262;-66
2022/01/03 08:03:30;;;;;;;9.67;5.43;;;8.00;99.90;;;8.69;100.00;98057.28;5264503;28;20203;-66
2022/01/03 08:06:12;;;;;;;8.80;5.37;;;8.00;99.90;;;8.71;100.00;98055.72;5263558;28;20200;-65
2022/01/03 08:08:45;;;;;;;8.13;4.80;;;8.00;99.90;;;8.71;100.00;98066.81;5264781;28;20223;-66
2022/01/03 08:11:18;;;;;;;10.60;5.97;;;8.00;99.90;;;8.62;100.00;98050.03;5267540;28;20318;-65
2022/01/03 08:13:51;;;;;;;8.05;5.15;;;7.90;99.90;;;8.60;100.00;98044.81;5260941;28;20192;-66
2022/01/03 08:16:26;;;;;;;8.57;5.38;;;7.90;99.90;;;8.63;100.00;98049.22;5263046;28;20221;-67
2022/01/03 08:18:59;;;;;;;10.47;5.30;;;8.00;99.90;;;8.66;100.00;98049.44;5264279;28;20217;-66
2022/01/03 08:21:34;;;;;;;14.70;6.60;;;8.00;99.90;;;8.66;100.00;98052.00;5263463;28;20222;-66
2022/01/03 08:24:07;;;;;;;10.27;5.90;;;8.00;99.90;;;8.68;100.00;98055.53;5265852;28;20535;-66
2022/01/03 08:26:40;;;;;;;8.80;6.10;;;8.00;99.90;;;8.69;100.00;98059.84;5262839;28;20210;-65
2022/01/03 08:29:13;;;;;;;8.70;6.90;;;8.00;99.90;;;8.70;100.00;98059.03;5256895;28;20718;-66
2022/01/03 08:31:48;;;;;;;14.95;11.13;;;8.00;99.90;;;8.73;100.00;98060.16;5263100;28;20227;-66
2022/01/03 08:34:21;;;;;;;14.60;10.85;;;8.00;99.90;;;8.75;100.00;98053.47;5257631;28;20256;-64
2022/01/03 08:36:55;;;;;;;13.13;9.93;;;8.00;99.90;;;8.77;100.00;98061.25;5261917;28;20203;-66
2022/01/03 08:39:28;;;;;;;15.20;9.13;;;8.00;99.90;;;8.80;100.00;98061.44;5263459;28;20200;-65
2022/01/03 08:42:01;;;;;;;6.60;5.90;;;8.00;99.90;;;8.78;100.00;98048.63;5262578;28;20220;-66
2022/01/03 08:44:34;;;;;;;9.43;4.90;;;8.00;99.90;;;8.81;100.00;98053.00;5262278;28;20396;-66
2022/01/03 08:47:09;;;;;;;14.70;6.27;;;8.10;99.90;;;8.85;100.00;98055.00;5262048;28;20683;-66
2022/01/03 08:49:42;;;;;;;14.80;11.03;;;8.10;99.90;;;8.84;100.00;98048.09;5262866;28;20201;-64
2022/01/03 08:52:15;;;;;;;14.10;9.90;;;8.10;99.90;;;8.85;100.00;98033.72;5261664;28;20601;-66
2022/01/03 08:54:49;;;;;;;11.98;9.50;;;8.20;99.90;;;8.90;100.00;98042.53;5263510;28;20652;-65
2022/01/03 08:57:22;;;;;;;8.80;7.28;;;8.20;99.90;;;8.92;100.00;98049.50;5262593;28;20506;-66
2022/01/03 08:59:55;;;;;;;8.15;6.53;;;8.20;99.90;;;8.95;100.00;98052.25;5263005;28;20195;-65
2022/01/03 09:02:29;;;;;;;8.98;6.22;;;8.30;99.90;;;8.96;100.00;98054.03;5261795;28;20220;-65
2022/01/03 09:05:03;;;;;;;13.53;6.70;;;8.20;99.90;;;8.97;100.00;98054.91;5263346;28;20206;-66
2022/01/03 09:07:36;;;;;;;12.82;7.25;;;8.30;99.90;;;8.96;100.00;98066.78;5262359;28;20223;-65
2022/01/03 09:10:11;;;;;;;8.48;5.95;;;8.30;99.90;;;8.95;100.00;98080.28;5262272;28;20214;-65
2022/01/03 09:12:44;;;;;;;10.17;5.77;;;8.30;99.90;;;8.95;100.00;98067.53;5262369;28;20215;-66
2022/01/03 09:15:17;;;;;;;8.45;6.60;;;8.30;99.90;;;9.06;100.00;98055.53;5265213;28;20204;-65
2022/01/03 09:17:52;;;;;;;11.77;7.23;;;8.30;99.90;;;9.18;100.00;98042.69;5267103;28;20567;-65
2022/01/03 09:20:25;;;;;;;7.22;5.80;;;8.40;99.90;;;9.28;100.00;98045.06;5267519;28;20195;-66
2022/01/03 09:23:07;;;;;;;9.57;6.13;;;8.40;99.90;;;9.14;100.00;98044.16;5266464;28;20235;-66
2022/01/03 09:31:26;;;;;;;9.38;5.20;;;8.40;99.90;;;9.23;100.00;98031.13;5267200;28;20215;-65
2022/01/03 09:34:04;;;;;;;9.65;5.43;;;8.50;99.90;;;9.24;100.00;98033.78;5267255;28;20210;-66
2022/01/03 09:36:37;;;;;;;7.45;4.22;;;8.50;99.90;;;9.29;100.00;98034.06;5267153;28;20209;-66
2022/01/03 09:39:10;;;;;;;7.05;4.70;;;8.60;99.90;;;9.37;100.00;98032.91;5265904;28;20200;-66
2022/01/03 09:41:58;;;;;;;8.75;4.65;;;8.60;99.90;;;9.41;100.00;98028.88;5267324;28;20220;-66
2022/01/03 09:44:34;;;;;;;10.27;4.85;;;8.60;99.90;;;9.45;100.00;98026.63;5266402;28;20295;-66
2022/01/03 09:47:09;;;;;;;10.60;4.68;;;8.70;99.90;;;9.51;100.00;98021.03;5265988;28;20291;-66
2022/01/03 09:49:44;;;;;;;12.93;6.80;;;8.70;99.90;;;9.53;100.00;98023.66;5274886;28;20867;-66
2022/01/03 09:52:23;;;;;;;14.60;7.28;;;8.70;99.90;;;9.63;100.00;98031.13;5266375;28;20219;-65
2022/01/03 09:54:57;;;;;;;8.40;6.97;;;8.70;99.90;;;9.64;100.00;98023.59;5265538;28;20203;-65
2022/01/03 09:57:31;;;;;;;12.07;6.90;;;8.80;99.90;;;9.69;100.00;98013.66;5264897;28;20584;-66
2022/01/03 10:00:06;;;;;;;15.43;7.93;;;8.90;99.90;;;9.73;100.00;98013.06;5266481;28;20204;-66
2022/01/03 10:02:39;;;;;;;15.00;7.80;;;8.90;99.90;;;9.76;100.00;98013.25;5266482;28;20311;-66
2022/01/03 10:05:14;;;;;;;12.30;7.10;;;8.90;99.90;;;9.80;100.00;98009.22;5265448;28;20214;-66
2022/01/03 10:07:48;;;;;;;13.20;7.35;;;9.00;99.90;;;9.85;100.00;98008.72;5264309;28;20591;-66
2022/01/03 10:10:21;;;;;;;11.25;7.15;;;9.00;99.90;;;9.86;100.00;98013.03;5263169;28;20200;-67
2022/01/03 10:12:54;;;;;;;10.18;6.78;;;9.00;99.90;;;9.87;100.00;98009.72;5264596;28;20219;-66
2022/01/03 10:15:27;;;;;;;9.88;5.57;;;9.00;99.90;;;9.87;100.00;98013.91;5266128;28;20206;-67
2022/01/03 10:18:01;;;;;;;12.48;6.18;;;9.00;99.90;;;9.91;100.00;98010.78;5263156;28;20200;-66
2022/01/03 10:20:40;;;;;;;9.68;5.38;;;9.00;99.90;;;9.93;100.00;98015.19;5264596;28;20192;-66
2022/01/03 10:23:17;;;;;;;8.57;5.97;;;9.10;99.90;;;10.06;100.00;98008.28;5265328;28;20221;-66
2022/01/03 10:25:50;;;;;;;9.43;5.05;;;9.20;99.90;;;10.07;100.00;98007.47;5260711;28;20199;-66
2022/01/03 10:28:25;;;;;;;6.35;4.32;;;9.20;99.90;;;10.05;100.00;98015.06;5260147;28;20238;-67
2022/01/03 10:30:59;;;;;;;10.25;5.38;;;9.10;99.90;;;10.08;100.00;98017.78;5269188;28;20543;-65
2022/01/03 10:33:32;;;;;;;7.93;5.30;;;9.20;99.90;;;10.08;100.00;98016.91;5265341;28;20195;-65
2022/01/03 10:36:11;;;;;;;7.35;5.10;;;9.20;99.90;;;10.12;100.00;98004.41;5263386;28;20200;-66
2022/01/03 10:38:47;;;;;;;4.68;4.25;;;9.10;99.90;;;10.12;100.00;98013.75;5264682;28;20282;-67
2022/01/03 10:41:23;;;;;;;7.13;4.70;;;9.20;99.90;;;10.15;100.00;98014.81;5263881;28;20771;-67
2022/01/03 10:43:59;;;;;;;7.93;4.57;;;9.20;99.90;;;10.18;100.00;98009.00;5265754;28;20196;-66
2022/01/03 10:46:34;;;;;;;6.45;4.43;;;9.10;99.90;;;10.20;100.00;98006.56;5264370;28;20208;-66
2022/01/03 10:49:10;;;;;;;8.00;3.28;;;9.00;99.90;;;10.24;100.00;98004.28;5263550;28;20230;-66
2022/01/03 10:51:45;;;;;;;5.65;4.00;;;9.10;99.90;;;10.21;100.00;97996.44;5266502;28;20574;-66
2022/01/03 10:54:21;;;;;;;9.60;3.75;;;9.00;99.90;;;10.18;100.00;97997.91;5262081;28;20203;-66
2022/01/03 10:56:54;;;;;;;5.97;3.53;;;9.00;99.90;;;10.18;100.00;97987.69;5266199;28;20295;-67
2022/01/03 10:59:30;;;;;;;10.95;3.60;;;9.00;99.90;;;10.24;100.00;97995.72;5264481;28;20192;-66
2022/01/03 11:02:07;;;;;;;6.18;3.15;;;8.90;99.90;;;10.24;100.00;97981.28;5262510;28;20713;-66
2022/01/03 11:04:49;;;;;;;7.03;3.40;;;9.00;99.90;;;10.39;100.00;97989.03;5264130;28;20199;-66